City Of Vicksburg — WDC2660 — position and weather

sailwx.info

Track history (hours):
 
Tides and Currents Weather Stations Pressure Air Temp Water Temp Dewpoint Dewpoint Depression Visibility Wind Speed Wind Dir Waves Ship Positions

City Of Vicksburg

Owner: Kirby Inland Marine LP, Houston, TX. More information available from US FCC via Universal Licensing System and Coast Guard Vessel Documentation Center.

Last reported at 2014-Nov-09 04:33 UTC. Time now 2014-Nov-26 04:15 UTC.
Position N 30°14' W 091°09'.
Warning: this ship's position is 16 days out of date.

Length 320 m.

Type: Towing. MMSI: 366996120.

Date/timePositionNaut miles runAvg speedWind from/ knotsBaromVisibWave heightAir tempDewpointWater temp
2014-Nov-09 04:33N 30°14' W 091°09'3 2.2
2014-Nov-09 03:13N 30°13' W 091°06'4 5.1
2014-Nov-09 02:28N 30°11' W 091°01'24 2.1
2014-Nov-08 15:12N 30°02' W 090°36'0 0.0
2014-Nov-08 14:32N 30°02' W 090°36'0 0.1
2014-Nov-08 13:32N 30°02' W 090°36'0 0.0
2014-Nov-08 12:24N 30°02' W 090°36'1 0.4
2014-Nov-08 11:12N 30°03' W 090°36'0 0.0
2014-Nov-08 10:09N 30°03' W 090°36'0 0.0
2014-Nov-08 08:16N 30°03' W 090°36'0 0.0
2014-Nov-08 07:26N 30°03' W 090°36'0 0.0
2014-Nov-08 06:31N 30°03' W 090°36'0 0.0
2014-Nov-08 05:20N 30°03' W 090°36'0 0.0
2014-Nov-08 04:33N 30°03' W 090°36'0 0.0
2014-Nov-07 08:14N 30°03' W 090°36'0 0.0
2014-Nov-06 14:20N 30°03' W 090°36'0 0.0
2014-Nov-06 13:12N 30°03' W 090°36'0 0.0
2014-Nov-06 12:19N 30°03' W 090°36'0 0.0
2014-Nov-06 11:31N 30°03' W 090°36'0 0.0
2014-Nov-06 10:31N 30°03' W 090°36'0 0.0
2014-Nov-06 09:25N 30°03' W 090°36'  
2014-Nov-03 09:30N 30°03' W 090°35'  
Track history (hours):
 
Tides and Currents Weather Stations Pressure Air Temp Water Temp Dewpoint Dewpoint Depression Visibility Wind Speed Wind Dir Waves Ship Positions

City Of Vicksburg

Owner: Kirby Inland Marine LP, Houston, TX. More information available from US FCC via Universal Licensing System and Coast Guard Vessel Documentation Center.

Last reported at 2014-Nov-09 04:33 UTC. Time now 2014-Nov-26 04:15 UTC.
Position N 30°14' W 091°09'.
Warning: this ship's position is 16 days out of date.

Length 320 m.

Type: Towing. MMSI: 366996120.

Date/timePositionNaut miles runAvg speedWind from/ knotsBaromVisibWave heightAir tempDewpointWater temp
2014-Nov-09 04:33N 30°14' W 091°09'3 2.2
2014-Nov-09 03:13N 30°13' W 091°06'4 5.1
2014-Nov-09 02:28N 30°11' W 091°01'24 2.1
2014-Nov-08 15:12N 30°02' W 090°36'0 0.0
2014-Nov-08 14:32N 30°02' W 090°36'0 0.1
2014-Nov-08 13:32N 30°02' W 090°36'0 0.0
2014-Nov-08 12:24N 30°02' W 090°36'1 0.4
2014-Nov-08 11:12N 30°03' W 090°36'0 0.0
2014-Nov-08 10:09N 30°03' W 090°36'0 0.0
2014-Nov-08 08:16N 30°03' W 090°36'0 0.0
2014-Nov-08 07:26N 30°03' W 090°36'0 0.0
2014-Nov-08 06:31N 30°03' W 090°36'0 0.0
2014-Nov-08 05:20N 30°03' W 090°36'0 0.0
2014-Nov-08 04:33N 30°03' W 090°36'0 0.0
2014-Nov-07 08:14N 30°03' W 090°36'0 0.0
2014-Nov-06 14:20N 30°03' W 090°36'0 0.0
2014-Nov-06 13:12N 30°03' W 090°36'0 0.0
2014-Nov-06 12:19N 30°03' W 090°36'0 0.0
2014-Nov-06 11:31N 30°03' W 090°36'0 0.0
2014-Nov-06 10:31N 30°03' W 090°36'0 0.0
2014-Nov-06 09:25N 30°03' W 090°36'  
2014-Nov-03 09:30N 30°03' W 090°35'  

Dump ship's entire track history